sensor_id;sensor_type;location;lat;lon;timestamp;temperature;humidity
18794;DHT22;29610;49.022;12.114;2023-02-15T00:01:24;-0.50;99.90
18794;DHT22;29610;49.022;12.114;2023-02-15T00:03:54;-0.40;99.90
18794;DHT22;29610;49.022;12.114;2023-02-15T00:06:23;-0.40;99.90
18794;DHT22;29610;49.022;12.114;2023-02-15T00:08:51;-0.40;99.90
18794;DHT22;29610;49.022;12.114;2023-02-15T00:11:22;-0.40;99.90
18794;DHT22;29610;49.022;12.114;2023-02-15T00:14:06;-0.50;99.90
18794;DHT22;29610;49.022;12.114;2023-02-15T00:16:36;-0.50;99.90
18794;DHT22;29610;49.022;12.114;2023-02-15T00:19:07;-0.50;99.90
18794;DHT22;29610;49.022;12.114;2023-02-15T00:21:37;-0.50;99.90
18794;DHT22;29610;49.022;12.114;2023-02-15T00:24:09;-0.60;99.90
18794;DHT22;29610;49.022;12.114;2023-02-15T00:26:40;-0.30;99.90
18794;DHT22;29610;49.022;12.114;2023-02-15T00:29:11;-0.70;99.90
18794;DHT22;29610;49.022;12.114;2023-02-15T00:31:41;-0.60;99.90
18794;DHT22;29610;49.022;12.114;2023-02-15T00:34:14;-0.50;99.90
18794;DHT22;29610;49.022;12.114;2023-02-15T00:36:44;-0.50;99.90
18794;DHT22;29610;49.022;12.114;2023-02-15T00:39:15;-0.60;99.90
18794;DHT22;29610;49.022;12.114;2023-02-15T00:41:45;-0.60;99.90
18794;DHT22;29610;49.022;12.114;2023-02-15T00:44:14;-0.50;99.90
18794;DHT22;29610;49.022;12.114;2023-02-15T00:46:43;-0.50;99.90
18794;DHT22;29610;49.022;12.114;2023-02-15T00:49:13;-0.50;99.90
18794;DHT22;29610;49.022;12.114;2023-02-15T00:51:42;-0.50;99.90
18794;DHT22;29610;49.022;12.114;2023-02-15T00:54:10;-0.50;99.90
18794;DHT22;29610;49.022;12.114;2023-02-15T00:56:39;-0.40;99.90
18794;DHT22;29610;49.022;12.114;2023-02-15T00:59:08;-0.40;99.90
18794;DHT22;29610;49.022;12.114;2023-02-15T01:01:37;-0.40;99.90
18794;DHT22;29610;49.022;12.114;2023-02-15T01:04:06;-0.50;99.90
18794;DHT22;29610;49.022;12.114;2023-02-15T01:06:36;-0.60;99.90
18794;DHT22;29610;49.022;12.114;2023-02-15T01:09:04;-0.60;99.90
18794;DHT22;29610;49.022;12.114;2023-02-15T01:11:33;-0.50;99.90
18794;DHT22;29610;49.022;12.114;2023-02-15T01:14:01;-0.70;99.90
18794;DHT22;29610;49.022;12.114;2023-02-15T01:16:31;-0.70;99.90
18794;DHT22;29610;49.022;12.114;2023-02-15T01:18:59;-0.70;99.90
18794;DHT22;29610;49.022;12.114;2023-02-15T01:21:31;-0.60;99.90
18794;DHT22;29610;49.022;12.114;2023-02-15T01:24:03;-0.70;99.90
18794;DHT22;29610;49.022;12.114;2023-02-15T01:26:32;-0.70;99.90
18794;DHT22;29610;49.022;12.114;2023-02-15T01:29:02;-0.80;99.90
18794;DHT22;29610;49.022;12.114;2023-02-15T01:31:31;-0.70;99.90
18794;DHT22;29610;49.022;12.114;2023-02-15T01:33:59;-0.50;99.90
18794;DHT22;29610;49.022;12.114;2023-02-15T01:36:28;-0.60;99.90
18794;DHT22;29610;49.022;12.114;2023-02-15T01:38:57;-0.60;99.90
18794;DHT22;29610;49.022;12.114;2023-02-15T01:41:27;-0.60;99.90
18794;DHT22;29610;49.022;12.114;2023-02-15T01:43:58;-0.60;99.90
18794;DHT22;29610;49.022;12.114;2023-02-15T01:46:33;-0.70;99.90
18794;DHT22;29610;49.022;12.114;2023-02-15T01:49:11;-0.60;99.90
18794;DHT22;29610;49.022;12.114;2023-02-15T01:51:44;-0.70;99.90
18794;DHT22;29610;49.022;12.114;2023-02-15T01:54:18;-0.60;99.90
18794;DHT22;29610;49.022;12.114;2023-02-15T01:56:54;-0.60;99.90
18794;DHT22;29610;49.022;12.114;2023-02-15T01:59:26;-0.60;99.90
18794;DHT22;29610;49.022;12.114;2023-02-15T02:01:59;-0.70;99.90
18794;DHT22;29610;49.022;12.114;2023-02-15T02:04:33;-0.70;99.90
18794;DHT22;29610;49.022;12.114;2023-02-15T02:07:07;-0.70;99.90
18794;DHT22;29610;49.022;12.114;2023-02-15T02:09:38;-0.60;99.90
18794;DHT22;29610;49.022;12.114;2023-02-15T02:12:08;-0.60;99.90
18794;DHT22;29610;49.022;12.114;2023-02-15T02:14:40;-0.50;99.90
18794;DHT22;29610;49.022;12.114;2023-02-15T02:17:12;-0.50;99.90
18794;DHT22;29610;49.022;12.114;2023-02-15T02:20:17;-0.50;99.90
18794;DHT22;29610;49.022;12.114;2023-02-15T02:23:25;-0.50;99.90
18794;DHT22;29610;49.022;12.114;2023-02-15T02:30:02;-0.50;99.90
18794;DHT22;29610;49.022;12.114;2023-02-15T02:33:18;-0.50;99.90
18794;DHT22;29610;49.022;12.114;2023-02-15T02:36:06;-0.50;99.90
18794;DHT22;29610;49.022;12.114;2023-02-15T02:38:52;-0.50;99.90
18794;DHT22;29610;49.022;12.114;2023-02-15T02:41:32;-0.40;99.90
18794;DHT22;29610;49.022;12.114;2023-02-15T02:44:13;-0.40;99.90
18794;DHT22;29610;49.022;12.114;2023-02-15T02:46:51;-0.40;99.90
18794;DHT22;29610;49.022;12.114;2023-02-15T02:49:32;-0.40;99.90
18794;DHT22;29610;49.022;12.114;2023-02-15T02:52:03;-0.40;99.90
18794;DHT22;29610;49.022;12.114;2023-02-15T02:54:34;-0.40;99.90
18794;DHT22;29610;49.022;12.114;2023-02-15T02:57:06;-0.30;99.90
18794;DHT22;29610;49.022;12.114;2023-02-15T02:59:41;-0.50;99.90
18794;DHT22;29610;49.022;12.114;2023-02-15T03:02:18;-0.60;99.90
18794;DHT22;29610;49.022;12.114;2023-02-15T03:04:57;0.50;99.90
18794;DHT22;29610;49.022;12.114;2023-02-15T03:07:31;-0.60;99.90
18794;DHT22;29610;49.022;12.114;2023-02-15T03:10:05;-0.50;99.90
18794;DHT22;29610;49.022;12.114;2023-02-15T03:12:38;-0.60;99.90
18794;DHT22;29610;49.022;12.114;2023-02-15T03:15:10;-0.60;99.90
18794;DHT22;29610;49.022;12.114;2023-02-15T03:17:44;-0.60;99.90
18794;DHT22;29610;49.022;12.114;2023-02-15T03:20:21;-0.70;99.90
18794;DHT22;29610;49.022;12.114;2023-02-15T03:22:55;-0.80;99.90
18794;DHT22;29610;49.022;12.114;2023-02-15T03:25:30;-0.80;99.90
18794;DHT22;29610;49.022;12.114;2023-02-15T03:28:04;-0.80;99.90
18794;DHT22;29610;49.022;12.114;2023-02-15T03:30:36;-0.80;99.90
18794;DHT22;29610;49.022;12.114;2023-02-15T03:33:09;-0.80;99.90
18794;DHT22;29610;49.022;12.114;2023-02-15T03:35:44;-0.90;99.90
18794;DHT22;29610;49.022;12.114;2023-02-15T03:38:20;-0.80;99.90
18794;DHT22;29610;49.022;12.114;2023-02-15T03:40:56;-0.80;99.90
18794;DHT22;29610;49.022;12.114;2023-02-15T03:43:45;-0.70;99.90
18794;DHT22;29610;49.022;12.114;2023-02-15T03:46:22;-0.80;99.90
18794;DHT22;29610;49.022;12.114;2023-02-15T03:49:00;-0.80;99.90
18794;DHT22;29610;49.022;12.114;2023-02-15T03:51:35;-0.80;99.90
18794;DHT22;29610;49.022;12.114;2023-02-15T03:54:08;-0.80;99.90
18794;DHT22;29610;49.022;12.114;2023-02-15T03:56:41;-0.80;99.90
18794;DHT22;29610;49.022;12.114;2023-02-15T03:59:31;-0.80;99.90
18794;DHT22;29610;49.022;12.114;2023-02-15T04:02:20;-0.70;99.90
18794;DHT22;29610;49.022;12.114;2023-02-15T04:04:52;-0.70;99.90
18794;DHT22;29610;49.022;12.114;2023-02-15T04:07:22;-0.70;99.90
18794;DHT22;29610;49.022;12.114;2023-02-15T04:09:50;-0.70;99.90
18794;DHT22;29610;49.022;12.114;2023-02-15T04:12:36;-0.70;99.90
18794;DHT22;29610;49.022;12.114;2023-02-15T04:15:05;-0.80;99.90
18794;DHT22;29610;49.022;12.114;2023-02-15T04:17:57;-0.70;99.90
18794;DHT22;29610;49.022;12.114;2023-02-15T04:20:25;-1.90;99.90
18794;DHT22;29610;49.022;12.114;2023-02-15T04:23:13;-0.80;99.90
18794;DHT22;29610;49.022;12.114;2023-02-15T04:26:02;-0.30;99.90
18794;DHT22;29610;49.022;12.114;2023-02-15T04:28:31;-0.80;99.90
18794;DHT22;29610;49.022;12.114;2023-02-15T04:31:00;-0.40;99.90
18794;DHT22;29610;49.022;12.114;2023-02-15T04:33:28;-0.90;99.90
18794;DHT22;29610;49.022;12.114;2023-02-15T04:35:57;-0.90;99.90
18794;DHT22;29610;49.022;12.114;2023-02-15T04:38:27;-0.90;99.90
18794;DHT22;29610;49.022;12.114;2023-02-15T04:40:56;-0.90;99.90
18794;DHT22;29610;49.022;12.114;2023-02-15T04:43:25;-0.90;99.90
18794;DHT22;29610;49.022;12.114;2023-02-15T04:45:53;-0.90;99.90
18794;DHT22;29610;49.022;12.114;2023-02-15T04:48:22;-0.90;99.90
18794;DHT22;29610;49.022;12.114;2023-02-15T04:50:50;-0.80;99.90
18794;DHT22;29610;49.022;12.114;2023-02-15T04:53:19;-0.80;99.90
18794;DHT22;29610;49.022;12.114;2023-02-15T04:55:49;-0.90;99.90
18794;DHT22;29610;49.022;12.114;2023-02-15T04:58:18;-0.90;99.90
18794;DHT22;29610;49.022;12.114;2023-02-15T05:00:46;-0.90;99.90
18794;DHT22;29610;49.022;12.114;2023-02-15T05:03:15;-0.80;99.90
18794;DHT22;29610;49.022;12.114;2023-02-15T05:05:45;-0.90;99.90
18794;DHT22;29610;49.022;12.114;2023-02-15T05:08:14;-0.90;99.90
18794;DHT22;29610;49.022;12.114;2023-02-15T05:10:43;-0.80;99.90
18794;DHT22;29610;49.022;12.114;2023-02-15T05:13:13;-0.80;99.90
18794;DHT22;29610;49.022;12.114;2023-02-15T05:15:46;-0.80;99.90
18794;DHT22;29610;49.022;12.114;2023-02-15T05:18:15;-0.80;99.90
18794;DHT22;29610;49.022;12.114;2023-02-15T05:20:45;-0.90;99.90
18794;DHT22;29610;49.022;12.114;2023-02-15T05:23:14;-0.20;99.90
18794;DHT22;29610;49.022;12.114;2023-02-15T05:25:47;-0.90;99.90
18794;DHT22;29610;49.022;12.114;2023-02-15T05:28:36;-0.90;99.90
18794;DHT22;29610;49.022;12.114;2023-02-15T05:31:08;-0.90;99.90
18794;DHT22;29610;49.022;12.114;2023-02-15T05:33:40;-0.90;99.90
18794;DHT22;29610;49.022;12.114;2023-02-15T05:36:09;-0.90;99.90
18794;DHT22;29610;49.022;12.114;2023-02-15T05:38:38;-0.90;99.90
18794;DHT22;29610;49.022;12.114;2023-02-15T05:41:09;-0.90;99.90
18794;DHT22;29610;49.022;12.114;2023-02-15T05:43:40;-0.30;99.90
18794;DHT22;29610;49.022;12.114;2023-02-15T05:46:08;-0.90;99.90
18794;DHT22;29610;49.022;12.114;2023-02-15T05:48:37;-0.90;99.90
18794;DHT22;29610;49.022;12.114;2023-02-15T05:51:07;-0.90;99.90
18794;DHT22;29610;49.022;12.114;2023-02-15T05:53:39;-0.90;99.90
18794;DHT22;29610;49.022;12.114;2023-02-15T05:56:11;-0.90;99.90
18794;DHT22;29610;49.022;12.114;2023-02-15T05:58:42;-0.90;99.90
18794;DHT22;29610;49.022;12.114;2023-02-15T06:01:14;-0.80;99.90
18794;DHT22;29610;49.022;12.114;2023-02-15T06:03:44;-0.90;99.90
18794;DHT22;29610;49.022;12.114;2023-02-15T06:06:14;-0.80;99.90
18794;DHT22;29610;49.022;12.114;2023-02-15T06:08:43;-0.80;99.90
18794;DHT22;29610;49.022;12.114;2023-02-15T06:11:12;-0.80;99.90
18794;DHT22;29610;49.022;12.114;2023-02-15T06:13:42;-0.90;99.90
18794;DHT22;29610;49.022;12.114;2023-02-15T06:16:10;-0.90;99.90
18794;DHT22;29610;49.022;12.114;2023-02-15T06:18:39;-0.90;99.90
18794;DHT22;29610;49.022;12.114;2023-02-15T06:21:08;-0.90;99.90
18794;DHT22;29610;49.022;12.114;2023-02-15T06:23:36;-0.90;99.90
18794;DHT22;29610;49.022;12.114;2023-02-15T06:26:05;-0.80;99.90
18794;DHT22;29610;49.022;12.114;2023-02-15T06:28:34;-0.50;99.90
18794;DHT22;29610;49.022;12.114;2023-02-15T06:31:05;-0.80;99.90
18794;DHT22;29610;49.022;12.114;2023-02-15T06:33:38;-0.80;99.90
18794;DHT22;29610;49.022;12.114;2023-02-15T06:36:27;-0.80;99.90
18794;DHT22;29610;49.022;12.114;2023-02-15T06:38:56;-0.90;99.90
18794;DHT22;29610;49.022;12.114;2023-02-15T06:41:25;-0.90;99.90
18794;DHT22;29610;49.022;12.114;2023-02-15T06:43:54;-0.90;99.90
18794;DHT22;29610;49.022;12.114;2023-02-15T06:46:24;-0.90;99.90
18794;DHT22;29610;49.022;12.114;2023-02-15T06:48:53;-0.90;99.90
18794;DHT22;29610;49.022;12.114;2023-02-15T06:51:21;-1.00;99.90
18794;DHT22;29610;49.022;12.114;2023-02-15T06:53:50;-1.00;99.90
18794;DHT22;29610;49.022;12.114;2023-02-15T06:56:19;-0.90;99.90
18794;DHT22;29610;49.022;12.114;2023-02-15T06:58:47;-0.90;99.90
18794;DHT22;29610;49.022;12.114;2023-02-15T07:01:17;-0.80;99.90
18794;DHT22;29610;49.022;12.114;2023-02-15T07:03:47;-0.80;99.90
18794;DHT22;29610;49.022;12.114;2023-02-15T07:06:16;-0.80;99.90
18794;DHT22;29610;49.022;12.114;2023-02-15T07:08:44;-0.90;99.90
18794;DHT22;29610;49.022;12.114;2023-02-15T07:11:13;-0.80;99.90
18794;DHT22;29610;49.022;12.114;2023-02-15T07:14:04;-0.70;99.90
18794;DHT22;29610;49.022;12.114;2023-02-15T07:16:33;-0.70;99.90
18794;DHT22;29610;49.022;12.114;2023-02-15T07:19:03;-0.70;99.90
18794;DHT22;29610;49.022;12.114;2023-02-15T07:21:34;-0.70;99.90
18794;DHT22;29610;49.022;12.114;2023-02-15T07:24:03;-0.60;99.90
18794;DHT22;29610;49.022;12.114;2023-02-15T07:26:33;-0.60;99.90
18794;DHT22;29610;49.022;12.114;2023-02-15T07:29:02;-0.50;99.90
18794;DHT22;29610;49.022;12.114;2023-02-15T07:31:30;-0.50;99.90
18794;DHT22;29610;49.022;12.114;2023-02-15T07:33:59;-0.50;99.90
18794;DHT22;29610;49.022;12.114;2023-02-15T07:36:32;-0.60;99.90
18794;DHT22;29610;49.022;12.114;2023-02-15T07:39:01;-0.50;99.90
18794;DHT22;29610;49.022;12.114;2023-02-15T07:41:29;0.20;99.90
18794;DHT22;29610;49.022;12.114;2023-02-15T07:43:58;-0.40;99.90
18794;DHT22;29610;49.022;12.114;2023-02-15T07:46:27;-0.40;99.90
18794;DHT22;29610;49.022;12.114;2023-02-15T07:48:57;-0.30;99.90
18794;DHT22;29610;49.022;12.114;2023-02-15T07:51:26;-0.30;99.90
18794;DHT22;29610;49.022;12.114;2023-02-15T07:53:57;-0.30;99.90
18794;DHT22;29610;49.022;12.114;2023-02-15T07:56:26;-0.40;99.90
18794;DHT22;29610;49.022;12.114;2023-02-15T07:58:54;-0.30;99.90
18794;DHT22;29610;49.022;12.114;2023-02-15T08:01:27;-0.30;99.90
18794;DHT22;29610;49.022;12.114;2023-02-15T08:03:57;-0.30;99.90
18794;DHT22;29610;49.022;12.114;2023-02-15T08:06:30;-0.20;99.90
18794;DHT22;29610;49.022;12.114;2023-02-15T08:09:03;-0.20;99.90
18794;DHT22;29610;49.022;12.114;2023-02-15T08:11:34;-0.10;99.90
18794;DHT22;29610;49.022;12.114;2023-02-15T08:14:09;-0.10;99.90
18794;DHT22;29610;49.022;12.114;2023-02-15T08:16:40;-0.10;99.90
18794;DHT22;29610;49.022;12.114;2023-02-15T08:19:12;-0.10;99.90
18794;DHT22;29610;49.022;12.114;2023-02-15T08:21:44;-0.20;99.90
18794;DHT22;29610;49.022;12.114;2023-02-15T08:24:17;-0.10;99.90
18794;DHT22;29610;49.022;12.114;2023-02-15T08:26:47;-0.10;99.90
18794;DHT22;29610;49.022;12.114;2023-02-15T08:29:19;-0.10;99.90
18794;DHT22;29610;49.022;12.114;2023-02-15T08:31:52;-0.10;99.90
18794;DHT22;29610;49.022;12.114;2023-02-15T08:34:23;-0.10;99.90
18794;DHT22;29610;49.022;12.114;2023-02-15T08:36:51;-0.10;99.90
18794;DHT22;29610;49.022;12.114;2023-02-15T08:39:22;-0.10;99.90
18794;DHT22;29610;49.022;12.114;2023-02-15T08:41:50;-0.10;99.90
18794;DHT22;29610;49.022;12.114;2023-02-15T08:44:20;-0.20;99.90
18794;DHT22;29610;49.022;12.114;2023-02-15T08:46:49;-0.10;99.90
18794;DHT22;29610;49.022;12.114;2023-02-15T08:49:19;-0.10;99.90
18794;DHT22;29610;49.022;12.114;2023-02-15T08:51:50;-0.10;99.90
18794;DHT22;29610;49.022;12.114;2023-02-15T08:54:21;-0.10;99.90
18794;DHT22;29610;49.022;12.114;2023-02-15T08:56:50;-0.20;99.90
18794;DHT22;29610;49.022;12.114;2023-02-15T08:59:20;-0.10;99.90
18794;DHT22;29610;49.022;12.114;2023-02-15T09:01:51;0.00;99.90
18794;DHT22;29610;49.022;12.114;2023-02-15T09:04:20;0.10;99.90
18794;DHT22;29610;49.022;12.114;2023-02-15T09:06:51;0.00;99.90
18794;DHT22;29610;49.022;12.114;2023-02-15T09:09:22;0.10;99.90
18794;DHT22;29610;49.022;12.114;2023-02-15T09:11:51;0.60;99.90
18794;DHT22;29610;49.022;12.114;2023-02-15T09:14:26;0.30;99.90
18794;DHT22;29610;49.022;12.114;2023-02-15T09:16:55;0.60;99.90
18794;DHT22;29610;49.022;12.114;2023-02-15T09:19:25;0.20;99.90
18794;DHT22;29610;49.022;12.114;2023-02-15T09:21:54;0.30;99.90
18794;DHT22;29610;49.022;12.114;2023-02-15T09:24:24;0.30;99.90
18794;DHT22;29610;49.022;12.114;2023-02-15T09:26:53;0.20;99.90
18794;DHT22;29610;49.022;12.114;2023-02-15T09:29:21;0.20;99.90
18794;DHT22;29610;49.022;12.114;2023-02-15T09:31:51;0.20;99.90
18794;DHT22;29610;49.022;12.114;2023-02-15T09:34:22;0.10;99.90
18794;DHT22;29610;49.022;12.114;2023-02-15T09:36:52;0.00;99.90
18794;DHT22;29610;49.022;12.114;2023-02-15T09:39:22;0.00;99.90
18794;DHT22;29610;49.022;12.114;2023-02-15T09:42:17;0.20;99.90
18794;DHT22;29610;49.022;12.114;2023-02-15T09:45:04;0.30;99.90
18794;DHT22;29610;49.022;12.114;2023-02-15T09:48:24;0.40;99.90
18794;DHT22;29610;49.022;12.114;2023-02-15T09:51:19;0.30;99.90
18794;DHT22;29610;49.022;12.114;2023-02-15T09:54:13;0.40;99.90
18794;DHT22;29610;49.022;12.114;2023-02-15T09:56:58;0.50;99.90
18794;DHT22;29610;49.022;12.114;2023-02-15T09:59:36;0.40;99.90
18794;DHT22;29610;49.022;12.114;2023-02-15T10:02:27;0.40;99.90
18794;DHT22;29610;49.022;12.114;2023-02-15T10:05:16;0.50;99.90
18794;DHT22;29610;49.022;12.114;2023-02-15T10:08:14;0.50;99.90
18794;DHT22;29610;49.022;12.114;2023-02-15T10:11:09;0.60;99.90
18794;DHT22;29610;49.022;12.114;2023-02-15T10:14:18;0.70;99.90
18794;DHT22;29610;49.022;12.114;2023-02-15T10:17:14;0.70;99.90
18794;DHT22;29610;49.022;12.114;2023-02-15T10:20:08;0.80;99.90
18794;DHT22;29610;49.022;12.114;2023-02-15T10:22:59;0.90;99.90
18794;DHT22;29610;49.022;12.114;2023-02-15T10:25:43;0.90;99.90
18794;DHT22;29610;49.022;12.114;2023-02-15T10:28:17;0.90;99.90
18794;DHT22;29610;49.022;12.114;2023-02-15T10:30:50;0.90;99.90
18794;DHT22;29610;49.022;12.114;2023-02-15T10:33:34;1.00;99.90
18794;DHT22;29610;49.022;12.114;2023-02-15T10:36:27;1.00;99.90
18794;DHT22;29610;49.022;12.114;2023-02-15T10:39:14;1.00;99.90
18794;DHT22;29610;49.022;12.114;2023-02-15T10:41:56;1.00;99.90
18794;DHT22;29610;49.022;12.114;2023-02-15T10:44:40;1.00;99.90
18794;DHT22;29610;49.022;12.114;2023-02-15T10:47:30;1.10;99.90
18794;DHT22;29610;49.022;12.114;2023-02-15T10:50:33;1.10;99.90
18794;DHT22;29610;49.022;12.114;2023-02-15T10:53:34;1.00;99.90
18794;DHT22;29610;49.022;12.114;2023-02-15T10:56:20;1.00;99.90
18794;DHT22;29610;49.022;12.114;2023-02-15T10:59:19;1.00;99.90
18794;DHT22;29610;49.022;12.114;2023-02-15T11:01:57;0.90;99.90
18794;DHT22;29610;49.022;12.114;2023-02-15T11:04:40;0.90;99.90
18794;DHT22;29610;49.022;12.114;2023-02-15T11:07:23;1.00;99.90
18794;DHT22;29610;49.022;12.114;2023-02-15T11:10:00;1.00;99.90
18794;DHT22;29610;49.022;12.114;2023-02-15T11:12:35;1.00;99.90
18794;DHT22;29610;49.022;12.114;2023-02-15T11:15:14;1.00;99.90
18794;DHT22;29610;49.022;12.114;2023-02-15T11:17:50;1.10;99.90
18794;DHT22;29610;49.022;12.114;2023-02-15T11:20:29;1.00;99.90
18794;DHT22;29610;49.022;12.114;2023-02-15T11:23:01;1.00;99.90
18794;DHT22;29610;49.022;12.114;2023-02-15T11:25:32;1.10;99.90
18794;DHT22;29610;49.022;12.114;2023-02-15T11:28:05;1.30;99.90
18794;DHT22;29610;49.022;12.114;2023-02-15T11:30:43;0.40;99.90
18794;DHT22;29610;49.022;12.114;2023-02-15T11:33:21;1.40;99.90
18794;DHT22;29610;49.022;12.114;2023-02-15T11:36:00;1.30;99.90
18794;DHT22;29610;49.022;12.114;2023-02-15T11:38:34;1.30;99.90
18794;DHT22;29610;49.022;12.114;2023-02-15T11:41:09;1.30;99.90
18794;DHT22;29610;49.022;12.114;2023-02-15T11:43:43;1.40;99.90
18794;DHT22;29610;49.022;12.114;2023-02-15T11:46:18;1.40;99.90
18794;DHT22;29610;49.022;12.114;2023-02-15T11:48:48;1.40;99.90
18794;DHT22;29610;49.022;12.114;2023-02-15T11:51:21;1.40;99.90
18794;DHT22;29610;49.022;12.114;2023-02-15T11:53:51;1.40;99.90
18794;DHT22;29610;49.022;12.114;2023-02-15T11:56:22;1.40;99.90
18794;DHT22;29610;49.022;12.114;2023-02-15T11:58:55;1.40;99.90
18794;DHT22;29610;49.022;12.114;2023-02-15T12:01:31;1.20;99.90
18794;DHT22;29610;49.022;12.114;2023-02-15T12:04:06;1.20;99.90
18794;DHT22;29610;49.022;12.114;2023-02-15T12:06:46;1.20;99.90
18794;DHT22;29610;49.022;12.114;2023-02-15T12:09:31;1.40;99.90
18794;DHT22;29610;49.022;12.114;2023-02-15T12:12:28;1.30;99.90
18794;DHT22;29610;49.022;12.114;2023-02-15T12:14:59;1.20;99.90
18794;DHT22;29610;49.022;12.114;2023-02-15T12:17:32;1.30;99.90
18794;DHT22;29610;49.022;12.114;2023-02-15T12:20:18;1.40;99.90
18794;DHT22;29610;49.022;12.114;2023-02-15T12:22:59;1.40;99.90
18794;DHT22;29610;49.022;12.114;2023-02-15T12:25:36;1.50;99.90
18794;DHT22;29610;49.022;12.114;2023-02-15T12:28:23;1.50;99.90
18794;DHT22;29610;49.022;12.114;2023-02-15T12:30:56;1.50;99.90
18794;DHT22;29610;49.022;12.114;2023-02-15T12:33:29;1.50;99.90
18794;DHT22;29610;49.022;12.114;2023-02-15T12:36:09;1.40;99.90
18794;DHT22;29610;49.022;12.114;2023-02-15T12:39:03;1.30;99.90
18794;DHT22;29610;49.022;12.114;2023-02-15T12:41:57;1.30;99.90
18794;DHT22;29610;49.022;12.114;2023-02-15T12:44:30;1.20;99.90
18794;DHT22;29610;49.022;12.114;2023-02-15T12:47:02;1.30;99.90
18794;DHT22;29610;49.022;12.114;2023-02-15T12:49:33;1.50;99.90
18794;DHT22;29610;49.022;12.114;2023-02-15T12:52:04;1.50;99.90
18794;DHT22;29610;49.022;12.114;2023-02-15T12:54:38;1.40;99.90
18794;DHT22;29610;49.022;12.114;2023-02-15T12:57:25;1.40;99.90
18794;DHT22;29610;49.022;12.114;2023-02-15T12:59:57;1.30;99.90
18794;DHT22;29610;49.022;12.114;2023-02-15T13:02:31;1.20;99.90
18794;DHT22;29610;49.022;12.114;2023-02-15T13:05:14;1.40;99.90
18794;DHT22;29610;49.022;12.114;2023-02-15T13:07:50;1.20;99.90
18794;DHT22;29610;49.022;12.114;2023-02-15T13:10:26;1.20;99.90
18794;DHT22;29610;49.022;12.114;2023-02-15T13:12:57;1.30;99.90
18794;DHT22;29610;49.022;12.114;2023-02-15T13:15:34;1.20;99.90
18794;DHT22;29610;49.022;12.114;2023-02-15T13:18:11;1.20;99.90
18794;DHT22;29610;49.022;12.114;2023-02-15T13:20:44;1.10;99.90
18794;DHT22;29610;49.022;12.114;2023-02-15T13:23:24;1.10;99.90
18794;DHT22;29610;49.022;12.114;2023-02-15T13:26:03;1.10;99.90
18794;DHT22;29610;49.022;12.114;2023-02-15T13:28:37;1.20;99.90
18794;DHT22;29610;49.022;12.114;2023-02-15T13:31:13;1.20;99.90
18794;DHT22;29610;49.022;12.114;2023-02-15T13:33:46;1.10;99.90
18794;DHT22;29610;49.022;12.114;2023-02-15T13:36:25;1.20;99.90
18794;DHT22;29610;49.022;12.114;2023-02-15T13:39:07;1.20;99.90
18794;DHT22;29610;49.022;12.114;2023-02-15T13:41:53;1.20;99.90
18794;DHT22;29610;49.022;12.114;2023-02-15T13:44:54;1.10;99.90
18794;DHT22;29610;49.022;12.114;2023-02-15T13:47:37;1.10;99.90
18794;DHT22;29610;49.022;12.114;2023-02-15T13:50:31;1.10;99.90
18794;DHT22;29610;49.022;12.114;2023-02-15T13:53:30;1.20;99.90
18794;DHT22;29610;49.022;12.114;2023-02-15T13:56:16;1.20;99.90
18794;DHT22;29610;49.022;12.114;2023-02-15T13:59:06;1.10;99.90
18794;DHT22;29610;49.022;12.114;2023-02-15T14:01:55;1.00;99.90
18794;DHT22;29610;49.022;12.114;2023-02-15T14:04:50;1.00;99.90
18794;DHT22;29610;49.022;12.114;2023-02-15T14:07:46;1.00;99.90
18794;DHT22;29610;49.022;12.114;2023-02-15T14:10:34;1.00;99.90
18794;DHT22;29610;49.022;12.114;2023-02-15T14:16:39;0.90;99.90
18794;DHT22;29610;49.022;12.114;2023-02-15T14:19:37;1.00;99.90
18794;DHT22;29610;49.022;12.114;2023-02-15T14:22:18;1.10;99.90
18794;DHT22;29610;49.022;12.114;2023-02-15T14:25:03;1.00;99.90
18794;DHT22;29610;49.022;12.114;2023-02-15T14:27:54;1.00;99.90
18794;DHT22;29610;49.022;12.114;2023-02-15T14:30:31;0.90;99.90
18794;DHT22;29610;49.022;12.114;2023-02-15T14:33:06;1.00;99.90
18794;DHT22;29610;49.022;12.114;2023-02-15T14:35:36;0.90;99.90
18794;DHT22;29610;49.022;12.114;2023-02-15T14:38:14;0.90;99.90
18794;DHT22;29610;49.022;12.114;2023-02-15T14:40:53;1.00;99.90
18794;DHT22;29610;49.022;12.114;2023-02-15T14:43:40;0.90;99.90
18794;DHT22;29610;49.022;12.114;2023-02-15T14:46:24;0.90;99.90
18794;DHT22;29610;49.022;12.114;2023-02-15T14:49:05;0.80;99.90
18794;DHT22;29610;49.022;12.114;2023-02-15T14:52:03;0.90;99.90
18794;DHT22;29610;49.022;12.114;2023-02-15T14:54:53;0.80;99.90
18794;DHT22;29610;49.022;12.114;2023-02-15T14:57:34;0.90;99.90
18794;DHT22;29610;49.022;12.114;2023-02-15T15:03:19;0.90;99.90
18794;DHT22;29610;49.022;12.114;2023-02-15T15:06:02;0.90;99.90
18794;DHT22;29610;49.022;12.114;2023-02-15T15:08:36;0.80;99.90
18794;DHT22;29610;49.022;12.114;2023-02-15T15:11:39;0.90;99.90
18794;DHT22;29610;49.022;12.114;2023-02-15T15:14:39;0.90;99.90
18794;DHT22;29610;49.022;12.114;2023-02-15T15:17:14;0.90;99.90
18794;DHT22;29610;49.022;12.114;2023-02-15T15:20:46;0.80;99.90
18794;DHT22;29610;49.022;12.114;2023-02-15T15:23:42;0.80;99.90
18794;DHT22;29610;49.022;12.114;2023-02-15T15:26:29;0.80;99.90
18794;DHT22;29610;49.022;12.114;2023-02-15T15:29:03;0.70;99.90
18794;DHT22;29610;49.022;12.114;2023-02-15T15:31:54;0.60;99.90
18794;DHT22;29610;49.022;12.114;2023-02-15T15:34:52;0.60;99.90
18794;DHT22;29610;49.022;12.114;2023-02-15T15:38:06;0.60;99.90
18794;DHT22;29610;49.022;12.114;2023-02-15T15:41:13;0.40;99.90
18794;DHT22;29610;49.022;12.114;2023-02-15T15:47:20;0.40;99.90
18794;DHT22;29610;49.022;12.114;2023-02-15T15:50:12;0.40;99.90
18794;DHT22;29610;49.022;12.114;2023-02-15T15:52:48;0.40;99.90
18794;DHT22;29610;49.022;12.114;2023-02-15T15:55:23;0.40;99.90
18794;DHT22;29610;49.022;12.114;2023-02-15T15:57:57;0.30;99.90
18794;DHT22;29610;49.022;12.114;2023-02-15T16:00:34;0.30;99.90
18794;DHT22;29610;49.022;12.114;2023-02-15T16:03:14;0.20;99.90
18794;DHT22;29610;49.022;12.114;2023-02-15T16:05:44;0.20;99.90
18794;DHT22;29610;49.022;12.114;2023-02-15T16:08:12;0.10;99.90
18794;DHT22;29610;49.022;12.114;2023-02-15T16:10:42;0.10;99.90
18794;DHT22;29610;49.022;12.114;2023-02-15T16:13:15;0.10;99.90
18794;DHT22;29610;49.022;12.114;2023-02-15T16:15:46;0.10;99.90
18794;DHT22;29610;49.022;12.114;2023-02-15T16:18:21;0.10;99.90
18794;DHT22;29610;49.022;12.114;2023-02-15T16:20:54;0.10;99.90
18794;DHT22;29610;49.022;12.114;2023-02-15T16:23:43;0.10;99.90
18794;DHT22;29610;49.022;12.114;2023-02-15T16:26:35;0.10;99.90
18794;DHT22;29610;49.022;12.114;2023-02-15T16:29:26;0.10;99.90
18794;DHT22;29610;49.022;12.114;2023-02-15T16:32:03;0.00;99.90
18794;DHT22;29610;49.022;12.114;2023-02-15T16:34:33;0.00;99.90